Time;durP1;ratioP1;P1;durP2;ratioP2;P2;SDS_P1;SDS_P2;PMS_P1;PMS_P2;Temp;Humidity;BMP_temperature;BMP_pressure;BME280_temperature;BME280_humidity;BME280_pressure;Samples;Min_cycle;Max_cycle;Signal;HPM_P1;HPM_P2
2023/06/17 07:01:23;;;;;;;0.45;0.45;;;27.90;83.40;31.70;101525.00;;;;6217486;22;1396139;-62
2023/06/17 07:03:52;;;;;;;0.80;0.80;;;27.90;83.20;30.90;101536.00;;;;6277231;22;20145;-62
2023/06/17 07:06:20;;;;;;;0.28;0.28;;;27.80;82.80;31.90;101538.00;;;;6278955;22;20535;-62
2023/06/17 07:08:46;;;;;;;0.98;0.98;;;27.90;83.30;31.60;101531.00;;;;6276621;22;20214;-62
2023/06/17 07:11:15;;;;;;;0.55;0.55;;;28.10;83.00;30.70;101539.00;;;;6278728;22;20566;-62
2023/06/17 07:13:53;;;;;;;0.85;0.85;;;27.90;83.50;32.10;101529.00;;;;6278479;22;20168;-62
2023/06/17 07:16:21;;;;;;;0.95;0.82;;;27.90;83.30;31.30;101536.00;;;;6278831;22;20141;-62
2023/06/17 07:18:49;;;;;;;0.30;0.30;;;28.10;81.60;31.10;101542.00;;;;6278406;22;20149;-62
2023/06/17 07:21:15;;;;;;;0.88;0.70;;;27.60;83.40;30.10;101547.00;;;;6278554;22;20141;-62
2023/06/17 07:23:43;;;;;;;0.77;0.25;;;27.60;82.70;30.70;101543.00;;;;6277207;22;20197;-62
2023/06/17 07:26:12;;;;;;;0.10;0.10;;;27.70;83.50;31.70;101540.00;;;;6278485;22;20553;-62
2023/06/17 07:28:37;;;;;;;0.10;0.10;;;28.10;83.10;32.10;101540.00;;;;6277258;22;20161;-62
2023/06/17 07:31:06;;;;;;;0.98;0.98;;;28.50;82.30;32.30;101534.00;;;;6277952;22;20157;-62
2023/06/17 07:33:34;;;;;;;0.57;0.57;;;28.50;81.80;28.30;101558.00;;;;6277902;22;20593;-61
2023/06/17 07:36:03;;;;;;;0.50;0.50;;;27.00;81.90;29.10;101546.00;;;;6278594;22;20148;-62
2023/06/17 07:38:33;;;;;;;0.10;0.10;;;26.90;82.40;31.10;101541.00;;;;6278008;22;20224;-62
2023/06/17 07:41:00;;;;;;;0.35;0.35;;;27.40;82.30;32.10;101539.00;;;;6278366;22;20160;-62
2023/06/17 07:43:28;;;;;;;0.63;0.30;;;28.30;81.60;32.00;101528.00;;;;6277994;22;20198;-62
2023/06/17 07:45:58;;;;;;;0.70;0.70;;;28.70;81.30;32.20;101547.00;;;;6277013;22;20178;-62
2023/06/17 07:48:33;;;;;;;0.30;0.30;;;29.00;80.60;34.20;101510.00;;;;6276723;22;20137;-62
2023/06/17 07:50:59;;;;;;;0.95;0.95;;;30.00;81.30;34.20;101535.00;;;;6276342;22;20140;-62
2023/06/17 07:53:25;;;;;;;0.73;0.50;;;30.30;79.20;34.80;101529.00;;;;6278170;22;20252;-62
2023/06/17 07:55:53;;;;;;;0.17;0.17;;;30.70;78.80;34.50;101513.00;;;;6276440;22;20248;-62
2023/06/17 07:58:25;;;;;;;0.63;0.55;;;31.00;79.20;32.80;101543.00;;;;6276905;22;20157;-62
2023/06/17 08:00:53;;;;;;;0.10;0.10;;;30.30;78.80;34.90;101534.00;;;;6277277;22;20256;-62
2023/06/17 08:03:22;;;;;;;0.32;0.32;;;30.90;79.10;31.20;101554.00;;;;6277800;22;20212;-62
2023/06/17 08:05:50;;;;;;;0.28;0.28;;;29.40;79.80;33.40;101540.00;;;;6276029;22;20133;-62
2023/06/17 08:08:16;;;;;;;0.10;0.10;;;29.90;79.20;34.20;101542.00;;;;6278195;22;20152;-62
2023/06/17 08:10:45;;;;;;;0.65;0.65;;;30.40;78.40;33.60;101532.00;;;;6277922;22;20145;-62
2023/06/17 08:13:11;;;;;;;0.35;0.20;;;30.40;77.40;32.40;101548.00;;;;6278042;22;20179;-62
2023/06/17 08:15:37;;;;;;;0.90;0.90;;;29.70;78.80;33.70;101538.00;;;;6277865;22;20149;-62
2023/06/17 08:18:05;;;;;;;2.08;0.85;;;29.90;77.40;33.30;101525.00;;;;6277986;22;20517;-62
2023/06/17 08:20:36;;;;;;;0.20;0.20;;;29.60;77.70;33.10;101544.00;;;;6276101;22;20596;-62
2023/06/17 08:23:03;;;;;;;0.43;0.43;;;29.70;78.00;33.70;101544.00;;;;6276203;22;20184;-62
2023/06/17 08:25:28;;;;;;;0.82;0.75;;;30.20;76.70;32.90;101545.00;;;;6276390;22;20179;-62
2023/06/17 08:27:54;;;;;;;0.70;0.70;;;30.30;76.50;34.60;101531.00;;;;6277828;22;20494;-62
2023/06/17 08:30:23;;;;;;;0.57;0.57;;;30.50;76.80;34.40;101516.00;;;;6277422;22;20247;-62
2023/06/17 08:32:51;;;;;;;0.88;0.60;;;30.60;75.90;35.10;101524.00;;;;6277472;22;20141;-62
2023/06/17 08:35:20;;;;;;;1.40;1.20;;;31.10;75.40;34.60;101529.00;;;;6277601;22;20156;-62
2023/06/17 08:37:48;;;;;;;0.10;0.10;;;31.10;75.10;35.60;101518.00;;;;6277756;22;20145;-62
2023/06/17 08:40:17;;;;;;;1.20;0.50;;;31.60;75.10;35.10;101522.00;;;;6277729;22;20145;-62
2023/06/17 08:42:47;;;;;;;0.50;0.35;;;31.70;75.60;34.70;101520.00;;;;6277531;22;20175;-62
2023/06/17 08:45:17;;;;;;;2.20;2.03;;;31.40;74.50;32.30;101528.00;;;;6275842;22;20153;-62
2023/06/17 08:47:49;;;;;;;0.25;0.25;;;30.50;75.60;34.70;101507.00;;;;6275837;22;20152;-62
2023/06/17 08:50:18;;;;;;;0.50;0.47;;;30.70;75.50;35.20;101520.00;;;;6275772;22;20148;-62
2023/06/17 08:52:45;;;;;;;0.32;0.32;;;31.10;75.70;34.90;101513.00;;;;6277620;22;20185;-62
2023/06/17 08:55:14;;;;;;;0.70;0.65;;;30.90;75.40;35.80;101514.00;;;;6276371;22;20191;-62
2023/06/17 08:57:44;;;;;;;0.10;0.10;;;31.50;74.90;35.40;101523.00;;;;6275907;22;20153;-62
2023/06/17 09:00:18;;;;;;;0.28;0.25;;;31.60;75.40;35.70;101492.00;;;;6275643;22;20547;-62
2023/06/17 09:02:47;;;;;;;0.20;0.20;;;31.60;75.70;36.60;101512.00;;;;6277244;22;20171;-62
2023/06/17 09:05:16;;;;;;;0.20;0.20;;;32.00;74.90;34.90;101513.00;;;;6250401;22;20719;-62
2023/06/17 09:07:42;;;;;;;0.75;0.75;;;31.90;74.70;33.10;101537.00;;;;6275773;22;20149;-62
2023/06/17 09:10:14;;;;;;;0.20;0.20;;;30.90;76.30;34.40;101523.00;;;;6277523;22;20574;-62
2023/06/17 09:12:41;;;;;;;1.08;1.08;;;30.80;76.10;34.50;101525.00;;;;6275581;22;20578;-62
2023/06/17 09:15:14;;;;;;;1.30;1.20;;;31.20;75.70;32.30;101523.00;;;;6277401;22;20141;-62
2023/06/17 09:17:53;;;;;;;0.55;0.55;;;30.80;75.50;35.00;101518.00;;;;6275192;22;20159;-62
2023/06/17 09:20:22;;;;;;;0.10;0.10;;;30.90;76.10;33.10;101518.00;;;;6277472;22;20153;-62
2023/06/17 09:22:48;;;;;;;0.10;0.10;;;30.40;77.30;33.90;101516.00;;;;6275342;22;20196;-62
2023/06/17 09:25:16;;;;;;;0.25;0.25;;;30.50;77.90;34.80;101520.00;;;;6277156;22;20573;-62
2023/06/17 09:27:47;;;;;;;0.57;0.57;;;31.00;77.50;35.30;101517.00;;;;6275498;22;20153;-62
2023/06/17 09:30:16;;;;;;;0.55;0.55;;;31.60;75.10;34.70;101520.00;;;;6276978;22;20157;-62
2023/06/17 09:32:44;;;;;;;0.65;0.65;;;31.40;74.00;34.40;101521.00;;;;6276593;22;20543;-62
2023/06/17 09:35:17;;;;;;;0.52;0.52;;;31.30;74.70;35.20;101514.00;;;;6250285;22;20203;-62
2023/06/17 09:37:47;;;;;;;1.00;0.95;;;31.30;74.40;34.30;101517.00;;;;6275032;22;20889;-62
2023/06/17 09:40:14;;;;;;;1.17;0.80;;;31.00;74.70;34.90;101512.00;;;;6277157;22;20141;-62
2023/06/17 09:42:44;;;;;;;0.50;0.50;;;31.40;73.90;34.70;101514.00;;;;6276936;22;20248;-62
2023/06/17 09:45:12;;;;;;;0.10;0.10;;;31.10;75.10;36.20;101501.00;;;;6277115;22;20140;-62
2023/06/17 09:47:39;;;;;;;0.20;0.20;;;31.80;74.80;35.50;101514.00;;;;6249627;22;20199;-62
2023/06/17 09:50:11;;;;;;;0.77;0.77;;;32.20;72.50;35.40;101508.00;;;;6275159;22;20148;-62
2023/06/17 09:52:52;;;;;;;0.10;0.10;;;32.50;72.00;37.30;101503.00;;;;6275614;22;20145;-62
2023/06/17 09:55:24;;;;;;;0.30;0.30;;;33.10;71.90;34.30;101515.00;;;;6275709;22;20138;-65
2023/06/17 09:57:53;;;;;;;1.40;1.30;;;32.50;71.80;35.30;101506.00;;;;6249721;22;20153;-63
2023/06/17 10:00:24;;;;;;;0.55;0.55;;;31.80;72.10;34.80;101505.00;;;;6275541;22;20609;-63
2023/06/17 10:02:54;;;;;;;0.10;0.10;;;31.90;72.80;35.90;101507.00;;;;6274673;22;20188;-63
2023/06/17 10:05:23;;;;;;;0.10;0.10;;;32.00;72.40;33.30;101513.00;;;;6275217;22;20176;-63
2023/06/17 10:07:53;;;;;;;0.20;0.20;;;30.90;72.70;34.70;101505.00;;;;6275256;22;20191;-63
2023/06/17 10:10:22;;;;;;;0.80;0.75;;;30.90;73.20;35.40;101498.00;;;;6276701;22;20570;-63
2023/06/17 10:12:50;;;;;;;0.47;0.47;;;31.20;74.70;36.70;101499.00;;;;6276887;22;20145;-63
2023/06/17 10:15:21;;;;;;;0.63;0.63;;;32.20;72.00;36.40;101493.00;;;;6277146;22;20143;-63
2023/06/17 10:17:51;;;;;;;0.30;0.30;;;32.70;71.40;37.40;101485.00;;;;6275096;22;20149;-63
2023/06/17 10:20:20;;;;;;;0.10;0.10;;;33.20;70.60;35.60;101499.00;;;;6276945;22;20214;-63
2023/06/17 10:33:33;;;;;;;0.10;0.10;;;32.40;68.90;33.10;101504.00;;;;5070012;28;20548;-62
2023/06/17 10:36:09;;;;;;;0.10;0.10;;;31.50;69.50;35.60;101482.00;;;;5050301;28;20189;-65
2023/06/17 10:38:41;;;;;;;0.38;0.38;;;31.90;69.90;35.90;101479.00;;;;5050391;28;20188;-62
2023/06/17 10:41:11;;;;;;;0.10;0.10;;;32.00;71.50;36.80;101471.00;;;;5050222;28;20261;-62
2023/06/17 10:43:43;;;;;;;0.55;0.52;;;33.00;70.30;37.10;101480.00;;;;5050203;28;20186;-62
2023/06/17 10:46:14;;;;;;;0.30;0.30;;;33.60;68.50;33.80;101489.00;;;;5049134;28;20188;-62
2023/06/17 10:48:43;;;;;;;0.68;0.68;;;32.30;69.40;34.10;101483.00;;;;5049177;28;20225;-62
2023/06/17 10:51:33;;;;;;;0.52;0.52;;;31.10;70.90;33.60;101488.00;;;;5049972;28;20249;-62
2023/06/17 10:53:58;;;;;;;0.10;0.10;;;30.90;73.20;35.30;101473.00;;;;5032182;28;20177;-62
2023/06/17 10:56:28;;;;;;;0.35;0.35;;;31.30;71.40;36.50;101466.00;;;;5050237;28;20193;-65
2023/06/17 10:58:56;;;;;;;0.68;0.60;;;32.30;70.80;36.80;101448.00;;;;5048833;28;20209;-65
2023/06/17 11:01:25;;;;;;;2.05;1.95;;;32.80;68.70;35.40;101470.00;;;;5049567;28;20285;-62
2023/06/17 11:03:58;;;;;;;0.10;0.10;;;32.40;65.50;36.40;101466.00;;;;5049723;28;20182;-62
2023/06/17 11:06:32;;;;;;;0.10;0.10;;;32.40;66.30;34.40;101445.00;;;;5044292;28;20212;-62
2023/06/17 11:09:04;;;;;;;0.10;0.10;;;31.60;66.40;36.90;101454.00;;;;5049478;28;20632;-62
2023/06/17 11:11:30;;;;;;;0.65;0.65;;;32.60;66.40;37.50;101438.00;;;;5049555;28;20603;-62
2023/06/17 11:13:56;;;;;;;0.45;0.45;;;33.80;65.40;36.30;101444.00;;;;5049329;28;20183;-63
2023/06/17 11:16:25;;;;;;;0.20;0.20;;;33.00;65.80;37.10;101431.00;;;;5049931;28;20193;-62
2023/06/17 11:18:54;;;;;;;0.20;0.20;;;33.70;65.60;38.70;101425.00;;;;5049266;28;20636;-62
2023/06/17 11:21:20;;;;;;;0.10;0.10;;;34.60;65.90;38.50;101402.00;;;;5045243;28;20191;-62
2023/06/17 11:23:51;;;;;;;0.80;0.80;;;34.50;66.80;35.10;101428.00;;;;5045705;28;20651;-65
2023/06/17 11:26:19;;;;;;;1.27;0.52;;;34.00;66.40;36.50;101422.00;;;;5036224;28;20182;-65
2023/06/17 11:28:53;;;;;;;0.20;0.20;;;33.30;68.70;38.40;101412.00;;;;5047738;28;20182;-62
2023/06/17 11:31:25;;;;;;;0.17;0.17;;;33.90;67.20;37.40;101418.00;;;;5047787;28;20300;-62
2023/06/17 11:34:01;;;;;;;1.20;1.10;;;34.00;67.30;39.40;101384.00;;;;5047734;28;20182;-62
2023/06/17 11:36:27;;;;;;;0.10;0.10;;;35.00;66.10;40.00;101393.00;;;;5048403;28;20277;-62
2023/06/17 11:38:59;;;;;;;0.20;0.20;;;35.70;65.20;38.20;101407.00;;;;5047762;28;20663;-62
2023/06/17 11:41:33;;;;;;;0.98;0.52;;;35.40;64.30;38.30;101406.00;;;;5048948;28;20220;-63
2023/06/17 11:43:59;;;;;;;0.10;0.10;;;34.90;65.00;38.50;101400.00;;;;5029828;28;20175;-63
2023/06/17 11:46:28;;;;;;;0.95;0.95;;;35.00;64.50;37.70;101405.00;;;;5035730;28;20187;-63
2023/06/17 11:48:59;;;;;;;0.15;0.15;;;35.00;64.00;37.90;101401.00;;;;5035941;28;20187;-62
2023/06/17 11:51:28;;;;;;;0.63;0.63;;;34.30;64.80;35.90;101402.00;;;;5029873;28;20239;-64
2023/06/17 11:53:59;;;;;;;0.15;0.15;;;33.10;65.40;36.50;101396.00;;;;5034328;28;20652;-64
2023/06/17 11:56:25;;;;;;;1.27;1.17;;;33.00;65.40;35.50;101407.00;;;;5035535;28;20191;-64
2023/06/17 11:58:54;;;;;;;0.17;0.17;;;32.40;65.80;35.40;101383.00;;;;5033892;28;20182;-63
2023/06/17 12:01:25;;;;;;;0.30;0.30;;;31.70;67.30;36.10;101388.00;;;;5035570;28;20202;-64
2023/06/17 12:04:00;;;;;;;0.20;0.20;;;31.90;67.30;36.40;101390.00;;;;5027953;28;20187;-64
2023/06/17 12:06:31;;;;;;;0.32;0.32;;;32.20;66.70;35.90;101396.00;;;;5030238;28;20632;-64
2023/06/17 12:09:04;;;;;;;0.30;0.30;;;32.10;67.60;35.10;101401.00;;;;5035635;28;20233;-64
2023/06/17 12:11:35;;;;;;;0.73;0.73;;;31.80;67.80;34.90;101403.00;;;;5034151;28;20263;-63
2023/06/17 12:14:15;;;;;;;0.10;0.10;;;31.60;68.00;35.40;101399.00;;;;5030782;28;20282;-64
2023/06/17 12:16:46;;;;;;;0.63;0.63;;;31.30;68.80;36.10;101392.00;;;;5033824;28;20543;-64
2023/06/17 12:19:31;;;;;;;0.10;0.10;;;32.00;67.60;35.90;101396.00;;;;5024868;28;20205;-63
2023/06/17 12:22:21;;;;;;;0.20;0.20;;;32.20;67.50;35.90;101362.00;;;;5034841;28;20190;-64
2023/06/17 12:24:52;;;;;;;0.20;0.20;;;32.40;67.90;35.00;101380.00;;;;5061373;28;20183;-64
2023/06/17 12:27:44;;;;;;;0.10;0.10;;;31.90;67.40;36.10;101387.00;;;;5035127;28;20171;-64
2023/06/17 12:30:12;;;;;;;0.52;0.52;;;32.00;67.00;34.00;101387.00;;;;5017553;28;20183;-63
2023/06/17 12:33:00;;;;;;;2.35;2.03;;;31.00;67.90;35.40;101376.00;;;;5017038;28;20234;-64
2023/06/17 12:35:32;;;;;;;0.40;0.40;;;31.30;68.00;35.70;101385.00;;;;5023622;28;20187;-64
2023/06/17 12:37:58;;;;;;;0.40;0.30;;;31.60;69.30;35.40;101383.00;;;;5035039;28;20502;-64
2023/06/17 12:40:24;;;;;;;0.10;0.10;;;31.70;67.10;35.10;101385.00;;;;5034718;28;20195;-64
2023/06/17 12:42:52;;;;;;;0.65;0.65;;;31.60;68.60;36.10;101347.00;;;;5034263;28;20703;-64
2023/06/17 12:45:30;;;;;;;0.20;0.20;;;31.70;68.50;35.60;101361.00;;;;5035009;28;20198;-64
2023/06/17 12:47:59;;;;;;;0.15;0.15;;;31.80;67.30;35.50;101384.00;;;;5034874;28;20206;-64
2023/06/17 12:50:33;;;;;;;0.20;0.20;;;32.00;67.10;35.80;101379.00;;;;5035206;28;20182;-64
2023/06/17 12:53:02;;;;;;;0.63;0.63;;;31.90;68.00;35.00;101355.00;;;;5030983;28;20186;-63
2023/06/17 12:55:52;;;;;;;0.20;0.20;;;31.40;68.80;34.30;101380.00;;;;5033306;28;20697;-63
2023/06/17 12:58:41;;;;;;;0.35;0.35;;;31.10;69.30;34.80;101362.00;;;;5034736;28;20286;-64
2023/06/17 13:01:10;;;;;;;0.60;0.60;;;31.10;69.20;34.60;101373.00;;;;5032630;28;20265;-64
2023/06/17 13:03:44;;;;;;;0.10;0.10;;;31.00;68.90;35.00;101366.00;;;;5032712;28;20194;-63
2023/06/17 13:06:13;;;;;;;1.95;0.85;;;30.90;69.00;36.50;101360.00;;;;5034356;28;20273;-64
2023/06/17 13:08:47;;;;;;;1.38;1.27;;;31.70;71.20;35.60;101364.00;;;;5034304;28;20213;-64
2023/06/17 13:11:16;;;;;;;0.80;0.80;;;32.00;68.10;34.20;101360.00;;;;5034095;28;20266;-63
2023/06/17 13:14:13;;;;;;;1.08;1.08;;;31.50;68.20;34.30;101367.00;;;;5016436;28;20179;-63
2023/06/17 13:16:59;;;;;;;0.10;0.10;;;31.10;68.20;35.10;101359.00;;;;5032866;28;20232;-63
2023/06/17 13:19:31;;;;;;;1.33;1.17;;;31.00;69.30;35.60;101344.00;;;;5033544;28;20222;-64
2023/06/17 13:21:59;;;;;;;2.70;0.95;;;31.50;68.60;34.10;101362.00;;;;5032566;28;20217;-63
2023/06/17 13:24:51;;;;;;;0.20;0.20;;;31.00;68.90;34.20;101356.00;;;;5033800;28;20195;-63
2023/06/17 13:27:30;;;;;;;0.15;0.15;;;30.80;68.60;34.90;101351.00;;;;5034102;28;20261;-64
2023/06/17 13:30:09;;;;;;;0.10;0.10;;;31.20;67.80;35.10;101320.00;;;;5033715;28;20179;-64
2023/06/17 13:32:55;;;;;;;0.10;0.10;;;30.90;68.30;34.60;101356.00;;;;5032151;28;20214;-64
2023/06/17 13:35:26;;;;;;;0.10;0.10;;;30.70;68.50;35.90;101326.00;;;;5033302;28;20205;-64
2023/06/17 13:37:52;;;;;;;0.45;0.45;;;31.40;68.50;34.20;101340.00;;;;5033433;28;20183;-64
2023/06/17 13:40:41;;;;;;;0.10;0.10;;;31.10;68.50;35.20;101345.00;;;;5015778;28;20642;-63
2023/06/17 13:43:25;;;;;;;0.68;0.68;;;31.10;69.40;35.40;101348.00;;;;5065080;28;20190;-64
2023/06/17 13:46:14;;;;;;;0.73;0.73;;;31.40;69.00;34.20;101360.00;;;;5031895;28;20550;-64
2023/06/17 13:48:45;;;;;;;0.10;0.10;;;31.00;68.70;35.20;101347.00;;;;5030487;28;20183;-64
2023/06/17 13:51:34;;;;;;;1.27;0.73;;;31.00;69.20;34.30;101348.00;;;;5033258;28;20179;-63
2023/06/17 13:54:06;;;;;;;0.10;0.10;;;30.80;68.60;35.40;101345.00;;;;5022566;28;20187;-64
2023/06/17 13:56:48;;;;;;;0.10;0.10;;;30.90;69.20;35.80;101333.00;;;;5032015;28;20195;-63
2023/06/17 13:59:28;;;;;;;0.10;0.10;;;31.30;70.40;35.70;101334.00;;;;5028982;28;20553;-64
2023/06/17 14:01:59;;;;;;;0.30;0.30;;;31.10;68.60;35.60;101338.00;;;;5052767;28;20617;-64
2023/06/17 14:04:40;;;;;;;0.20;0.20;;;31.60;69.30;35.00;101346.00;;;;5033208;28;20289;-64
2023/06/17 14:07:10;;;;;;;0.55;0.52;;;31.40;69.70;34.90;101340.00;;;;5031700;28;20179;-64
2023/06/17 14:09:41;;;;;;;0.10;0.10;;;31.20;69.60;34.50;101339.00;;;;5028208;28;20229;-63
2023/06/17 14:12:13;;;;;;;0.20;0.20;;;30.70;69.40;34.90;101346.00;;;;5026821;28;20206;-63
2023/06/17 14:14:44;;;;;;;0.20;0.20;;;31.00;70.30;34.40;101345.00;;;;5033181;28;20187;-64
2023/06/17 14:17:13;;;;;;;0.20;0.20;;;30.80;70.00;34.80;101344.00;;;;5033356;28;20186;-64
2023/06/17 14:19:41;;;;;;;0.10;0.10;;;30.70;70.20;33.70;101342.00;;;;5028491;28;20649;-63
2023/06/17 14:22:10;;;;;;;0.10;0.10;;;30.50;70.20;34.60;101336.00;;;;5029739;28;20240;-64
2023/06/17 14:24:47;;;;;;;0.10;0.10;;;30.30;69.90;35.50;101331.00;;;;5032770;28;20186;-64
2023/06/17 14:27:38;;;;;;;0.20;0.20;;;31.10;70.60;35.30;101332.00;;;;5031536;28;20202;-63
2023/06/17 14:30:14;;;;;;;0.25;0.25;;;31.20;69.70;35.20;101331.00;;;;5032987;28;20194;-64
2023/06/17 14:32:47;;;;;;;0.10;0.10;;;31.40;70.10;36.30;101320.00;;;;5031476;28;20218;-64
2023/06/17 14:35:34;;;;;;;0.20;0.20;;;31.70;69.80;36.30;101324.00;;;;5028549;28;20224;-64
2023/06/17 14:38:03;;;;;;;0.10;0.10;;;32.00;69.20;36.30;101309.00;;;;5045144;28;20193;-64
2023/06/17 14:40:29;;;;;;;0.10;0.10;;;32.00;68.50;37.10;101313.00;;;;5033307;28;20187;-64
2023/06/17 14:42:56;;;;;;;1.10;1.05;;;32.40;68.80;33.10;101322.00;;;;5031471;28;20209;-63
2023/06/17 14:45:22;;;;;;;0.10;0.10;;;31.00;68.30;34.60;101318.00;;;;5033052;28;20240;-63
2023/06/17 14:48:02;;;;;;;0.10;0.10;;;30.70;69.70;36.40;101313.00;;;;5033163;28;20219;-63
2023/06/17 14:50:31;;;;;;;0.10;0.10;;;31.50;69.50;35.90;101315.00;;;;5016163;28;20183;-64
2023/06/17 14:53:02;;;;;;;0.68;0.68;;;31.70;68.40;33.10;101320.00;;;;5024927;28;20265;-61
2023/06/17 14:55:30;;;;;;;0.38;0.38;;;30.90;70.20;33.70;101319.00;;;;5031434;28;20182;-63
2023/06/17 14:58:01;;;;;;;0.10;0.10;;;30.60;70.10;34.30;101313.00;;;;5031363;28;20198;-63
2023/06/17 15:00:29;;;;;;;0.10;0.10;;;30.70;69.90;34.60;101314.00;;;;5032618;28;20190;-64
2023/06/17 15:03:01;;;;;;;0.20;0.20;;;30.80;70.10;34.90;101315.00;;;;5032592;28;20199;-63
2023/06/17 15:05:30;;;;;;;0.40;0.40;;;31.20;69.90;34.30;101319.00;;;;5032385;28;20183;-64
2023/06/17 15:08:02;;;;;;;0.75;0.75;;;31.00;69.60;34.60;101306.00;;;;5032150;28;20556;-63
2023/06/17 15:10:51;;;;;;;1.98;1.23;;;30.80;69.60;34.20;101307.00;;;;5031008;28;20187;-63
2023/06/17 15:13:28;;;;;;;0.40;0.40;;;30.70;69.70;33.40;101315.00;;;;5031915;28;20244;-63
2023/06/17 15:16:06;;;;;;;0.63;0.47;;;30.50;70.00;34.90;101306.00;;;;5031692;28;20187;-63
2023/06/17 15:18:52;;;;;;;0.30;0.30;;;30.70;71.80;35.70;101298.00;;;;5033647;28;20185;-63
2023/06/17 15:21:23;;;;;;;0.20;0.20;;;31.30;71.40;36.00;101298.00;;;;5035273;28;20288;-65
2023/06/17 15:23:52;;;;;;;0.20;0.20;;;31.50;70.10;36.20;101294.00;;;;5059090;28;20179;-64
2023/06/17 15:26:21;;;;;;;0.30;0.30;;;31.70;69.50;35.10;101298.00;;;;5036047;28;20198;-64
2023/06/17 15:28:52;;;;;;;0.57;0.30;;;31.50;69.20;33.60;101306.00;;;;5035047;28;20190;-63
2023/06/17 15:31:29;;;;;;;0.10;0.10;;;30.70;70.40;34.20;101284.00;;;;5035756;28;20199;-64
2023/06/17 15:33:58;;;;;;;0.10;0.10;;;30.40;70.90;35.30;101289.00;;;;5035840;28;20216;-64
2023/06/17 15:36:25;;;;;;;0.10;0.10;;;31.00;70.60;35.70;101284.00;;;;5034788;28;20189;-64
2023/06/17 15:39:00;;;;;;;0.10;0.10;;;31.20;70.80;36.20;101287.00;;;;5035882;28;20186;-64
2023/06/17 15:41:33;;;;;;;0.10;0.10;;;31.60;71.30;36.20;101282.00;;;;5035844;28;20187;-64
2023/06/17 15:44:02;;;;;;;0.10;0.10;;;31.90;69.90;35.30;101286.00;;;;5035674;28;20190;-64
2023/06/17 15:46:40;;;;;;;0.20;0.20;;;31.70;69.70;35.40;101289.00;;;;5035663;28;20183;-64
2023/06/17 15:49:09;;;;;;;0.10;0.10;;;31.70;69.80;35.20;101279.00;;;;5023385;28;20270;-64
2023/06/17 15:51:41;;;;;;;0.10;0.10;;;31.40;70.10;35.90;101280.00;;;;5028586;28;20611;-64
2023/06/17 15:54:13;;;;;;;0.52;0.52;;;31.40;70.40;35.90;101267.00;;;;5017632;28;20249;-63
2023/06/17 15:56:56;;;;;;;0.10;0.10;;;31.50;69.80;34.50;101290.00;;;;5035683;28;20175;-64
2023/06/17 15:59:36;;;;;;;0.10;0.10;;;31.10;69.80;34.20;101278.00;;;;5034408;28;20209;-63
2023/06/17 16:02:13;;;;;;;0.10;0.10;;;30.70;70.20;34.90;101295.00;;;;5030653;28;20193;-63
2023/06/17 16:04:44;;;;;;;0.10;0.10;;;30.90;71.40;35.10;101282.00;;;;5035212;28;20197;-63
2023/06/17 16:07:20;;;;;;;0.20;0.20;;;30.80;71.00;35.80;101283.00;;;;5017830;28;20645;-64
2023/06/17 16:10:07;;;;;;;0.30;0.30;;;31.30;70.30;34.30;101287.00;;;;5035234;28;20632;-63
2023/06/17 16:12:38;;;;;;;0.10;0.10;;;30.70;71.40;35.30;101279.00;;;;5067644;28;20676;-63
2023/06/17 16:15:19;;;;;;;0.90;0.65;;;31.00;70.50;33.20;101294.00;;;;5035298;28;20194;-63
2023/06/17 16:17:47;;;;;;;0.13;0.13;;;30.40;69.50;33.50;101285.00;;;;5035141;28;20186;-63
2023/06/17 16:20:21;;;;;;;1.20;1.17;;;30.10;70.10;33.00;101276.00;;;;5034668;28;20199;-63
2023/06/17 16:22:50;;;;;;;0.30;0.30;;;29.90;70.10;33.00;101253.00;;;;5027564;28;20178;-63
2023/06/17 16:25:21;;;;;;;0.17;0.17;;;29.50;71.10;33.50;101283.00;;;;5033741;28;20233;-63
2023/06/17 16:27:56;;;;;;;0.20;0.20;;;29.50;71.80;33.20;101284.00;;;;5033865;28;20596;-63
2023/06/17 16:30:47;;;;;;;0.22;0.22;;;29.40;71.50;34.30;101278.00;;;;5034967;28;20181;-63
2023/06/17 16:33:17;;;;;;;0.10;0.10;;;29.70;70.80;34.10;101256.00;;;;5029334;28;20364;-63
2023/06/17 16:35:48;;;;;;;0.20;0.20;;;30.00;71.10;34.30;101263.00;;;;5033381;28;20179;-63
2023/06/17 16:38:32;;;;;;;0.30;0.30;;;30.10;71.20;33.60;101269.00;;;;5033639;28;20198;-61
2023/06/17 16:41:06;;;;;;;0.10;0.10;;;30.10;70.60;32.60;101281.00;;;;5034638;28;20190;-61
2023/06/17 16:43:35;;;;;;;1.00;0.90;;;29.70;71.10;31.90;101280.00;;;;5018685;28;20195;-63
2023/06/17 16:46:07;;;;;;;0.10;0.10;;;29.10;72.30;32.30;101265.00;;;;5060240;28;20258;-63
2023/06/17 16:49:13;;;;;;;2.92;2.80;;;29.00;72.60;32.90;101273.00;;;;5016634;28;20194;-63
2023/06/17 16:51:47;;;;;;;0.10;0.10;;;29.10;72.60;33.10;101258.00;;;;5029396;28;20297;-63
2023/06/17 16:54:21;;;;;;;0.10;0.10;;;29.30;72.10;33.80;101264.00;;;;5034460;28;20218;-64
2023/06/17 16:56:58;;;;;;;0.57;0.57;;;29.50;72.30;34.70;101263.00;;;;5034690;28;20273;-63
2023/06/17 16:59:30;;;;;;;0.10;0.10;;;30.20;71.90;32.80;101261.00;;;;5030174;28;20249;-61
2023/06/17 17:02:05;;;;;;;0.10;0.10;;;29.50;72.90;33.40;101268.00;;;;5027497;28;20191;-61
2023/06/17 17:04:39;;;;;;;0.10;0.10;;;29.60;73.00;33.50;101260.00;;;;5034437;28;20262;-61
2023/06/17 17:07:31;;;;;;;1.10;0.60;;;29.40;73.80;31.40;101260.00;;;;5033948;28;20276;-63
2023/06/17 17:10:09;;;;;;;2.28;2.17;;;28.90;74.90;31.80;101243.00;;;;5030124;28;20561;-63
2023/06/17 17:13:01;;;;;;;0.10;0.10;;;28.80;76.60;33.70;101242.00;;;;5033773;28;20611;-63
2023/06/17 17:15:33;;;;;;;0.40;0.40;;;29.20;76.60;33.80;101246.00;;;;5032675;28;20179;-64
2023/06/17 17:18:02;;;;;;;0.10;0.10;;;29.60;75.40;34.50;101249.00;;;;5034201;28;20515;-63
2023/06/17 17:20:39;;;;;;;0.10;0.10;;;29.90;75.60;33.90;101242.00;;;;5034008;28;20641;-64
2023/06/17 17:23:20;;;;;;;0.10;0.10;;;30.00;75.40;34.30;101251.00;;;;5032551;28;20192;-64
2023/06/17 17:25:55;;;;;;;1.70;1.60;;;29.90;76.20;34.60;101253.00;;;;5034373;28;20211;-63
2023/06/17 17:28:29;;;;;;;0.30;0.30;;;30.10;74.20;34.40;101261.00;;;;5033992;28;20186;-63
2023/06/17 17:31:02;;;;;;;0.65;0.65;;;30.00;75.40;33.70;101258.00;;;;5032401;28;20179;-63
2023/06/17 17:33:40;;;;;;;0.40;0.40;;;30.10;75.90;33.20;101250.00;;;;5032469;28;20217;-63
2023/06/17 17:36:24;;;;;;;0.10;0.10;;;29.70;76.60;34.10;101255.00;;;;5032562;28;20193;-63
2023/06/17 17:38:53;;;;;;;0.10;0.10;;;29.80;77.30;34.30;101238.00;;;;5033282;28;20187;-61
2023/06/17 17:41:29;;;;;;;0.10;0.10;;;29.90;76.70;34.40;101251.00;;;;5032169;28;20201;-61
2023/06/17 17:44:07;;;;;;;0.65;0.65;;;29.90;76.70;32.70;101271.00;;;;5032760;28;20182;-61
2023/06/17 17:46:39;;;;;;;1.00;0.55;;;29.50;75.50;31.60;101248.00;;;;5032343;28;20197;-63
2023/06/17 17:49:08;;;;;;;1.73;1.23;;;28.80;76.80;31.50;101278.00;;;;5033463;28;20186;-63
2023/06/17 17:51:54;;;;;;;2.83;2.63;;;28.30;79.00;31.00;101288.00;;;;5026033;28;20562;-63
2023/06/17 17:54:34;;;;;;;3.33;1.95;;;27.90;80.40;30.40;101295.00;;;;5012156;28;20249;-63
2023/06/17 17:57:33;;;;;;;0.10;0.10;;;27.50;81.50;31.20;101290.00;;;;5031139;28;20206;-63
2023/06/17 18:00:02;;;;;;;1.23;0.73;;;27.30;82.70;31.50;101291.00;;;;5017531;28;20198;-63
2023/06/17 18:02:36;;;;;;;0.10;0.10;;;27.50;83.50;30.60;101300.00;;;;5033046;28;20195;-63
2023/06/17 18:05:10;;;;;;;0.70;0.70;;;27.60;83.70;29.90;101302.00;;;;5033205;28;20275;-63
2023/06/17 18:07:44;;;;;;;0.20;0.20;;;27.00;84.70;29.80;101301.00;;;;5033011;28;20191;-63
2023/06/17 18:10:13;;;;;;;0.65;0.55;;;26.80;85.70;29.40;101298.00;;;;5028596;28;20209;-63
2023/06/17 18:12:51;;;;;;;0.28;0.28;;;26.60;86.00;29.80;101297.00;;;;5033091;28;20199;-64
2023/06/17 18:15:27;;;;;;;0.95;0.95;;;26.60;86.50;29.10;101303.00;;;;5033150;28;20236;-63
2023/06/17 18:17:56;;;;;;;1.55;1.15;;;26.40;87.40;29.40;101301.00;;;;5029790;28;20206;-63
2023/06/17 18:20:25;;;;;;;0.10;0.10;;;26.30;88.00;29.50;101289.00;;;;5032254;28;20202;-63
2023/06/17 18:23:01;;;;;;;0.52;0.52;;;26.40;88.30;29.70;101293.00;;;;5031731;28;20186;-63